createdAt,value
2022-09-26T00:00:09.003Z,50
2022-09-26T00:15:02.350Z,50
2022-09-26T00:30:05.777Z,50
2022-09-26T00:45:03.525Z,50
2022-09-26T01:00:04.058Z,50
2022-09-26T01:15:04.246Z,50
2022-09-26T01:30:05.043Z,50
2022-09-26T01:45:02.831Z,50
2022-09-26T02:00:04.171Z,49
2022-09-26T02:15:02.328Z,49
2022-09-26T02:30:06.840Z,49
2022-09-26T02:45:03.540Z,49
2022-09-26T03:00:08.470Z,49
2022-09-26T03:15:02.252Z,49
2022-09-26T03:30:04.281Z,49
2022-09-26T03:45:03.510Z,49
2022-09-26T04:00:09.825Z,49
2022-09-26T04:15:02.732Z,49
2022-09-26T04:30:06.675Z,49
2022-09-26T04:45:02.402Z,49
2022-09-26T05:00:07.370Z,49
2022-09-26T05:15:04.306Z,49
2022-09-26T05:30:05.411Z,49
2022-09-26T05:45:03.454Z,49
2022-09-26T06:00:04.882Z,49
2022-09-26T06:15:02.148Z,49
2022-09-26T06:30:07.136Z,49
2022-09-26T06:45:06.710Z,48
2022-09-26T07:00:06.616Z,48
2022-09-26T07:15:05.682Z,48
2022-09-26T07:30:05.959Z,48
2022-09-26T07:45:29.571Z,49
2022-09-26T08:00:05.687Z,48
2022-09-26T08:15:02.423Z,48
2022-09-26T08:30:08.346Z,48
2022-09-26T08:45:03.219Z,48
2022-09-26T09:00:09.610Z,48
2022-09-26T09:15:25.969Z,48
2022-09-26T09:30:17.349Z,48
2022-09-26T09:45:05.075Z,48
2022-09-26T10:00:06.203Z,48
2022-09-26T10:15:06.740Z,47
2022-09-26T10:30:05.745Z,47
2022-09-26T10:45:02.378Z,47
2022-09-26T11:00:08.890Z,47
2022-09-26T11:15:03.848Z,47
2022-09-26T11:30:08.534Z,47
2022-09-26T11:45:02.552Z,47
2022-09-26T12:00:12.251Z,46
2022-09-26T12:15:03.479Z,46
2022-09-26T12:30:09.006Z,46
2022-09-26T12:45:02.477Z,46
2022-09-26T13:00:08.508Z,45
2022-09-26T13:15:04.544Z,45
2022-09-26T13:30:09.964Z,45
2022-09-26T13:45:04.355Z,44
2022-09-26T14:00:10.285Z,44
2022-09-26T14:15:03.154Z,43
2022-09-26T14:30:10.943Z,43
2022-09-26T14:45:04.070Z,42
2022-09-26T15:00:08.455Z,42
2022-09-26T15:15:05.536Z,42
2022-09-26T15:30:11.500Z,42
2022-09-26T15:45:04.454Z,42
2022-09-26T16:00:10.249Z,41
2022-09-26T16:15:04.760Z,41
2022-09-26T16:30:06.197Z,41
2022-09-26T16:45:04.671Z,40
2022-09-26T17:00:06.515Z,40
2022-09-26T17:15:04.592Z,40
2022-09-26T17:30:04.888Z,40
2022-09-26T17:45:04.651Z,40
2022-09-26T18:00:10.187Z,40
2022-09-26T18:15:03.392Z,41
2022-09-26T18:30:06.615Z,41
2022-09-26T18:45:04.085Z,41
2022-09-26T19:00:10.765Z,41
2022-09-26T19:15:03.289Z,41
2022-09-26T19:30:09.560Z,41
2022-09-26T19:45:04.293Z,41
2022-09-26T20:00:08.022Z,41
2022-09-26T20:15:02.778Z,41
2022-09-26T20:30:06.019Z,41
2022-09-26T20:45:04.560Z,41
2022-09-26T21:00:09.563Z,41
2022-09-26T21:15:03.508Z,41
2022-09-26T21:30:04.910Z,41
2022-09-26T21:45:02.443Z,41
2022-09-26T22:00:05.134Z,41
2022-09-26T22:15:05.875Z,41
2022-09-26T22:30:06.686Z,41
2022-09-26T22:45:02.970Z,41
2022-09-26T23:00:05.549Z,41
2022-09-26T23:15:02.590Z,41
2022-09-26T23:30:08.576Z,41
2022-09-26T23:45:04.082Z,41
